Bei Facebook empfehlenBei Twitter postenGoogle plusPinterest

Das Wetter im Erzgebirge am 25.01.2016

Wetter und Klima am 25.01.2016 Holzhau im Erzgebirge (630m ü.NN)
Letzte gemessene Temperatur und Uhrzeit der Messung23:45:00 Uhr0.50 °C
Temperatur (Maximum / Höchstwert) und Uhrzeit der Messung14:15:00 Uhr5.00 °C
Temperatur (Minimum / Tiefstwert) und Uhrzeit der Messung23:45:000.50 °C
Errechneter Absolutwert der Temperaturschwankungen zwischen Tmin und Tmax des Tages4.50 K
Errechnete Tagesmitteltemperatur3.15521 °C
Gesamt - Niederschlag des Tages (in flüssiger Form)5.70 Liter / m²
Luftdruck (Maximum / Höchstwert) und Zeitpunkt der Messung13:00:00 Uhr1022.40 hPa
Luftdruck (Minimum / Tiefstwert) und Zeitpunkt der Messung04:15:00 Uhr1020.80 hPa
Errechneter Absolutwert der Luftdruckschwankungen des Tages1.60 hPa
Höchste gemessene Windgeschwindigkeit und Uhrzeit der Messung07:45:00 Uhr4.68 km/h
Errechnete Windhäufigkeit in Relation zu den Messwerten des Tages6.25000 %
Niedrigste Windkühle (Windchill) und Zeitpunkt der Messung23:45:00 Uhr0.50 °C
Taupunkt (Maximum / Höchstwert) und Uhrzeit der Messung14:15:00 Uhr4.60 °C
Taupunkt (Minimum / Tiefstwert) und Uhrzeit der Messung23:45:00-0.10 °C
Anzahl der automatisch eingelesenen Messwerte 96

Detaillierte Wetter- und Klima- Messwerte für den 25.01.2016 in Holzhau im Erzgebirge (630m ü.NN)
ZeitTemperaturLuftdruckRel. LuftfeuchteWindWindrichtungWindchillTaupunktNiederschlag l/m²
23:45:000.50 °C1021.10 hPa96.00 %-0.10 °C5.70
23:30:000.60 °C1021.10 hPa96.00 %0.00 °C5.70
23:15:000.80 °C1021.10 hPa96.00 %0.20 °C5.70
23:00:000.90 °C1021.20 hPa96.00 %0.30 °C5.70
22:45:001.10 °C1021.10 hPa96.00 %0.50 °C5.70
22:30:001.30 °C1021.10 hPa97.00 %0.90 °C5.70
22:15:001.50 °C1021.30 hPa97.00 %1.10 °C5.70
22:00:002.10 °C1021.20 hPa97.00 %1.70 °C5.70
21:45:002.30 °C1021.10 hPa97.00 %1.90 °C5.70
21:30:002.40 °C1021.10 hPa97.00 %2.00 °C5.70
21:15:002.20 °C1021.20 hPa97.00 %1.80 km/hOSO2.20 °C1.80 °C5.70
21:00:002.60 °C1021.20 hPa97.00 %2.20 °C5.70
20:45:002.80 °C1021.30 hPa97.00 %2.40 °C5.70
20:30:002.90 °C1021.50 hPa97.00 %2.50 °C5.70
20:15:002.80 °C1021.60 hPa97.00 %2.40 °C5.70
20:00:002.90 °C1021.60 hPa97.00 %2.50 °C5.70
19:45:002.90 °C1021.50 hPa97.00 %2.50 °C5.70
19:30:003.00 °C1021.70 hPa97.00 %2.60 °C5.70
19:15:003.00 °C1021.50 hPa97.00 %2.60 °C5.70
19:00:002.90 °C1021.60 hPa97.00 %2.50 °C5.70
18:45:003.00 °C1021.50 hPa97.00 %2.60 °C5.70
18:30:003.40 °C1021.80 hPa97.00 %3.00 °C5.70
18:15:003.90 °C1021.70 hPa97.00 %3.50 °C5.70
18:00:004.10 °C1021.90 hPa97.00 %3.70 °C5.70
17:45:003.60 °C1021.60 hPa97.00 %3.20 °C5.70
17:30:003.20 °C1021.80 hPa97.00 %2.80 °C5.70
17:15:003.00 °C1021.60 hPa97.00 %2.60 °C5.70
17:00:003.00 °C1021.60 hPa97.00 %2.60 °C5.70
16:45:003.10 °C1021.70 hPa97.00 %2.70 °C5.70
16:30:003.00 °C1021.60 hPa97.00 %2.60 °C5.70
16:15:003.00 °C1021.60 hPa97.00 %2.60 °C5.70
16:00:003.00 °C1021.60 hPa97.00 %2.60 °C5.70
15:45:003.20 °C1021.50 hPa96.00 %2.60 °C5.70
15:30:003.30 °C1021.60 hPa96.00 %2.70 °C5.70
15:15:003.40 °C1021.60 hPa96.00 %2.80 °C5.70
15:00:003.60 °C1021.50 hPa97.00 %3.20 °C5.70
14:45:004.10 °C1021.60 hPa97.00 %3.70 °C5.70
14:30:004.70 °C1021.60 hPa97.00 %4.30 °C5.70
14:15:005.00 °C1021.80 hPa97.00 %4.60 °C5.70
14:00:004.90 °C1021.80 hPa97.00 %4.50 °C5.70
13:45:004.80 °C1021.90 hPa97.00 %4.40 °C5.70
13:30:004.80 °C1022.10 hPa97.00 %4.40 °C5.70
13:15:004.60 °C1022.30 hPa97.00 %4.20 °C5.70
13:00:004.60 °C1022.40 hPa97.00 %4.20 °C5.70
12:45:004.50 °C1022.40 hPa97.00 %4.10 °C5.70
12:30:004.60 °C1022.40 hPa97.00 %4.20 °C5.70
12:15:004.50 °C1022.10 hPa97.00 %4.10 °C5.70
12:00:004.50 °C1022.20 hPa97.00 %4.10 °C5.70
11:45:004.40 °C1022.30 hPa97.00 %4.00 °C5.70
11:30:004.30 °C1022.20 hPa97.00 %3.90 °C5.70
11:15:004.30 °C1022.10 hPa97.00 %3.90 °C5.70
11:00:004.30 °C1022.00 hPa97.00 %3.90 °C5.70
10:45:004.20 °C1021.90 hPa97.00 %3.80 °C5.70
10:30:004.30 °C1021.80 hPa97.00 %3.90 °C5.18
10:15:004.40 °C1021.80 hPa97.00 %4.00 °C5.18
10:00:004.30 °C1021.90 hPa97.00 %3.90 °C5.18
09:45:004.10 °C1021.80 hPa97.00 %3.24 km/hW4.10 °C3.70 °C5.18
09:30:003.90 °C1021.40 hPa97.00 %3.50 °C5.18
09:15:003.90 °C1021.60 hPa97.00 %3.50 °C5.18
09:00:003.60 °C1021.40 hPa97.00 %3.20 °C4.66
08:45:003.60 °C1021.30 hPa97.00 %3.20 °C4.66
08:30:003.60 °C1021.20 hPa97.00 %3.20 °C4.14
08:15:003.60 °C1021.20 hPa97.00 %1.80 km/hWSW3.60 °C3.20 °C4.14
08:00:003.60 °C1021.20 hPa97.00 %3.20 °C4.14
07:45:003.60 °C1021.10 hPa97.00 %4.68 km/hSW3.60 °C3.20 °C4.14
07:30:003.60 °C1021.00 hPa97.00 %3.20 °C3.62
07:15:003.50 °C1021.10 hPa97.00 %3.10 °C3.62
07:00:003.50 °C1021.20 hPa97.00 %3.10 °C3.62
06:45:003.50 °C1021.10 hPa97.00 %3.10 °C3.62
06:30:003.50 °C1021.20 hPa97.00 %2.88 km/hWSW3.50 °C3.10 °C3.62
06:15:003.40 °C1021.00 hPa97.00 %3.00 °C3.62
06:00:003.40 °C1021.00 hPa96.00 %2.80 °C3.62
05:45:003.40 °C1021.00 hPa96.00 %2.80 °C3.62
05:30:003.40 °C1021.00 hPa96.00 %2.80 °C3.11
05:15:003.20 °C1021.10 hPa96.00 %2.60 °C3.11
05:00:003.10 °C1021.00 hPa96.00 %3.24 km/hWSW3.10 °C2.50 °C3.11
04:45:002.90 °C1021.20 hPa96.00 %2.30 °C2.59
04:30:002.90 °C1020.90 hPa96.00 %2.30 °C2.59
04:15:002.90 °C1020.80 hPa96.00 %2.30 °C2.59
04:00:002.90 °C1021.10 hPa96.00 %2.30 °C2.59
03:45:002.80 °C1021.10 hPa96.00 %2.20 °C2.59
03:30:002.40 °C1021.10 hPa96.00 %1.80 °C2.59
03:15:002.10 °C1021.20 hPa96.00 %1.50 °C2.59
03:00:002.20 °C1021.30 hPa96.00 %1.60 °C2.07
02:45:002.30 °C1021.40 hPa96.00 %1.70 °C2.07
02:30:002.40 °C1021.60 hPa96.00 %1.80 °C2.07
02:15:002.40 °C1022.00 hPa96.00 %1.80 °C1.55
02:00:002.20 °C1021.70 hPa96.00 %1.60 °C1.55
01:45:002.20 °C1022.00 hPa96.00 %1.60 °C1.03
01:30:002.20 °C1022.00 hPa96.00 %1.60 °C1.03
01:15:002.30 °C1021.90 hPa96.00 %1.70 °C1.03
01:00:002.20 °C1022.00 hPa96.00 %1.60 °C0.52
00:45:002.10 °C1022.10 hPa96.00 %1.50 °C0.52
00:30:002.10 °C1022.30 hPa96.00 %1.50 °C0.52
00:15:002.10 °C1022.40 hPa96.00 %1.50 °C 
00:00:001.90 °C1022.40 hPa96.00 %1.30 °C 

Permanenter Link zu dieser Seite: Wetter im Erzgebirge am 25.01.2016
Performance-Info: Die Erstellung der Seite / Statistik(en) / Tabelle(n) erforderte 5 Datenbankserver-Abfrage(n) und dauerte 103 Millisekunden. (Dieser Messwert ist von der Gesamt-Auslastung des Servers abhängig.)
Erzgebirge - Wetter | Erzgebirge - Wetter (Mobilgeräte) | Komplette Klimadatenbank